sensor_id;sensor_type;location;lat;lon;timestamp;pressure;altitude;pressure_sealevel;temperature;humidity
15817;BME280;8009;50.070;8.232;2022-11-20T00:00:08;99605.56;;;4.96;69.99
15817;BME280;8009;50.070;8.232;2022-11-20T00:02:37;99603.59;;;4.99;70.27
15817;BME280;8009;50.070;8.232;2022-11-20T00:05:07;99600.03;;;4.99;70.13
15817;BME280;8009;50.070;8.232;2022-11-20T00:07:35;99599.00;;;4.71;70.56
15817;BME280;8009;50.070;8.232;2022-11-20T00:10:05;99595.28;;;4.74;71.01
15817;BME280;8009;50.070;8.232;2022-11-20T00:12:33;99592.94;;;4.83;70.34
15817;BME280;8009;50.070;8.232;2022-11-20T00:15:05;99589.16;;;4.72;73.13
15817;BME280;8009;50.070;8.232;2022-11-20T00:17:34;99584.31;;;4.78;70.94
15817;BME280;8009;50.070;8.232;2022-11-20T00:20:03;99590.69;;;4.76;72.46
15817;BME280;8009;50.070;8.232;2022-11-20T00:22:31;99593.69;;;4.55;72.13
15817;BME280;8009;50.070;8.232;2022-11-20T00:25:00;99587.06;;;4.47;72.57
15817;BME280;8009;50.070;8.232;2022-11-20T00:27:28;99590.06;;;4.40;72.99
15817;BME280;8009;50.070;8.232;2022-11-20T00:29:57;99588.84;;;4.46;73.33
15817;BME280;8009;50.070;8.232;2022-11-20T00:32:28;99592.03;;;4.53;72.47
15817;BME280;8009;50.070;8.232;2022-11-20T00:34:57;99586.69;;;4.21;73.24
15817;BME280;8009;50.070;8.232;2022-11-20T00:37:26;99599.19;;;4.52;73.26
15817;BME280;8009;50.070;8.232;2022-11-20T00:39:55;99595.91;;;4.63;73.33
15817;BME280;8009;50.070;8.232;2022-11-20T00:42:23;99596.69;;;4.95;73.34
15817;BME280;8009;50.070;8.232;2022-11-20T00:44:52;99590.66;;;4.92;73.16
15817;BME280;8009;50.070;8.232;2022-11-20T00:47:20;99591.69;;;4.59;72.63
15817;BME280;8009;50.070;8.232;2022-11-20T00:49:51;99591.06;;;4.54;74.01
15817;BME280;8009;50.070;8.232;2022-11-20T00:52:20;99586.41;;;4.73;73.06
15817;BME280;8009;50.070;8.232;2022-11-20T00:54:48;99578.09;;;4.78;73.16
15817;BME280;8009;50.070;8.232;2022-11-20T00:57:18;99583.34;;;4.33;74.27
15817;BME280;8009;50.070;8.232;2022-11-20T00:59:46;99585.31;;;4.46;74.85
15817;BME280;8009;50.070;8.232;2022-11-20T01:02:15;99593.69;;;4.24;75.25
15817;BME280;8009;50.070;8.232;2022-11-20T01:04:43;99590.81;;;4.58;74.87
15817;BME280;8009;50.070;8.232;2022-11-20T01:07:15;99584.25;;;4.64;74.15
15817;BME280;8009;50.070;8.232;2022-11-20T01:09:43;99583.75;;;4.73;74.78
15817;BME280;8009;50.070;8.232;2022-11-20T01:12:11;99581.44;;;4.51;74.75
15817;BME280;8009;50.070;8.232;2022-11-20T01:14:40;99584.72;;;4.40;75.76
15817;BME280;8009;50.070;8.232;2022-11-20T01:17:11;99580.47;;;4.52;75.01
15817;BME280;8009;50.070;8.232;2022-11-20T01:19:40;99586.31;;;4.75;75.62
15817;BME280;8009;50.070;8.232;2022-11-20T01:22:09;99589.94;;;4.74;75.27
15817;BME280;8009;50.070;8.232;2022-11-20T01:24:40;99588.63;;;4.81;74.63
15817;BME280;8009;50.070;8.232;2022-11-20T01:27:09;99591.69;;;4.59;74.63
15817;BME280;8009;50.070;8.232;2022-11-20T01:29:38;99593.44;;;4.44;75.19
15817;BME280;8009;50.070;8.232;2022-11-20T01:32:06;99582.56;;;4.31;76.39
15817;BME280;8009;50.070;8.232;2022-11-20T01:34:37;99583.16;;;4.52;75.04
15817;BME280;8009;50.070;8.232;2022-11-20T01:37:08;99581.69;;;4.47;75.83
15817;BME280;8009;50.070;8.232;2022-11-20T01:39:36;99593.50;;;4.58;74.95
15817;BME280;8009;50.070;8.232;2022-11-20T01:42:07;99588.50;;;4.52;75.54
15817;BME280;8009;50.070;8.232;2022-11-20T01:44:53;99581.25;;;4.54;74.95
15817;BME280;8009;50.070;8.232;2022-11-20T01:47:28;99581.00;;;4.43;75.30
15817;BME280;8009;50.070;8.232;2022-11-20T01:50:01;99586.78;;;4.51;74.48
15817;BME280;8009;50.070;8.232;2022-11-20T01:52:34;99577.63;;;4.55;74.59
15817;BME280;8009;50.070;8.232;2022-11-20T01:55:08;99577.00;;;4.66;74.06
15817;BME280;8009;50.070;8.232;2022-11-20T01:57:40;99578.81;;;4.50;75.17
15817;BME280;8009;50.070;8.232;2022-11-20T02:00:11;99566.34;;;4.50;74.61
15817;BME280;8009;50.070;8.232;2022-11-20T02:02:45;99560.31;;;4.47;75.18
15817;BME280;8009;50.070;8.232;2022-11-20T02:05:18;99567.38;;;4.48;75.05
15817;BME280;8009;50.070;8.232;2022-11-20T02:07:48;99555.03;;;4.45;75.70
15817;BME280;8009;50.070;8.232;2022-11-20T02:10:17;99553.31;;;4.44;75.33
15817;BME280;8009;50.070;8.232;2022-11-20T02:12:49;99553.19;;;4.61;75.66
15817;BME280;8009;50.070;8.232;2022-11-20T02:15:32;99559.69;;;4.42;76.61
15817;BME280;8009;50.070;8.232;2022-11-20T02:18:04;99554.78;;;4.34;77.10
15817;BME280;8009;50.070;8.232;2022-11-20T02:20:36;99568.25;;;4.32;76.84
15817;BME280;8009;50.070;8.232;2022-11-20T02:23:15;99558.41;;;4.49;75.95
15817;BME280;8009;50.070;8.232;2022-11-20T02:25:48;99551.50;;;4.45;75.10
15817;BME280;8009;50.070;8.232;2022-11-20T02:28:17;99548.75;;;4.30;75.88
15817;BME280;8009;50.070;8.232;2022-11-20T02:30:46;99547.19;;;4.42;75.35
15817;BME280;8009;50.070;8.232;2022-11-20T02:33:14;99539.31;;;4.09;75.80
15817;BME280;8009;50.070;8.232;2022-11-20T02:35:45;99532.81;;;4.29;76.83
15817;BME280;8009;50.070;8.232;2022-11-20T02:38:14;99531.75;;;4.47;75.23
15817;BME280;8009;50.070;8.232;2022-11-20T02:40:43;99534.69;;;4.58;75.00
15817;BME280;8009;50.070;8.232;2022-11-20T02:43:15;99528.22;;;4.31;76.24
15817;BME280;8009;50.070;8.232;2022-11-20T02:45:44;99528.66;;;4.23;76.08
15817;BME280;8009;50.070;8.232;2022-11-20T02:48:12;99546.25;;;4.43;75.41
15817;BME280;8009;50.070;8.232;2022-11-20T02:50:41;99544.72;;;4.39;73.91
15817;BME280;8009;50.070;8.232;2022-11-20T02:53:09;99538.72;;;4.50;75.08
15817;BME280;8009;50.070;8.232;2022-11-20T02:55:38;99551.63;;;4.73;74.29
15817;BME280;8009;50.070;8.232;2022-11-20T02:58:07;99542.19;;;4.82;75.22
15817;BME280;8009;50.070;8.232;2022-11-20T03:00:37;99536.91;;;4.66;75.35
15817;BME280;8009;50.070;8.232;2022-11-20T03:03:06;99543.44;;;4.60;75.95
15817;BME280;8009;50.070;8.232;2022-11-20T03:05:34;99534.34;;;4.49;75.54
15817;BME280;8009;50.070;8.232;2022-11-20T03:08:03;99539.25;;;4.56;75.81
15817;BME280;8009;50.070;8.232;2022-11-20T03:10:32;99557.78;;;4.59;76.33
15817;BME280;8009;50.070;8.232;2022-11-20T03:13:01;99552.94;;;4.66;76.78
15817;BME280;8009;50.070;8.232;2022-11-20T03:15:31;99551.41;;;4.46;77.78
15817;BME280;8009;50.070;8.232;2022-11-20T03:18:03;99544.53;;;4.26;77.50
15817;BME280;8009;50.070;8.232;2022-11-20T03:20:33;99549.78;;;4.44;76.04
15817;BME280;8009;50.070;8.232;2022-11-20T03:23:01;99527.50;;;4.59;75.41
15817;BME280;8009;50.070;8.232;2022-11-20T03:25:30;99528.09;;;4.64;75.84
15817;BME280;8009;50.070;8.232;2022-11-20T03:27:58;99517.72;;;4.44;76.47
15817;BME280;8009;50.070;8.232;2022-11-20T03:30:27;99509.53;;;4.31;76.30
15817;BME280;8009;50.070;8.232;2022-11-20T03:32:58;99528.41;;;4.44;76.15
15817;BME280;8009;50.070;8.232;2022-11-20T03:35:29;99550.41;;;4.79;75.57
15817;BME280;8009;50.070;8.232;2022-11-20T03:37:57;99548.34;;;4.68;76.40
15817;BME280;8009;50.070;8.232;2022-11-20T03:40:26;99542.03;;;4.69;76.08
15817;BME280;8009;50.070;8.232;2022-11-20T03:42:55;99537.25;;;4.60;75.67
15817;BME280;8009;50.070;8.232;2022-11-20T03:45:24;99536.91;;;4.66;75.44
15817;BME280;8009;50.070;8.232;2022-11-20T03:47:52;99526.81;;;4.55;75.83
15817;BME280;8009;50.070;8.232;2022-11-20T03:50:20;99527.13;;;4.65;75.49
15817;BME280;8009;50.070;8.232;2022-11-20T03:52:51;99521.66;;;4.82;75.88
15817;BME280;8009;50.070;8.232;2022-11-20T03:55:20;99525.06;;;4.70;75.27
15817;BME280;8009;50.070;8.232;2022-11-20T03:57:48;99516.81;;;4.59;75.68
15817;BME280;8009;50.070;8.232;2022-11-20T04:00:17;99524.38;;;4.67;75.42
15817;BME280;8009;50.070;8.232;2022-11-20T04:02:45;99531.44;;;4.68;75.14
15817;BME280;8009;50.070;8.232;2022-11-20T04:05:13;99519.25;;;4.78;75.10
15817;BME280;8009;50.070;8.232;2022-11-20T04:07:42;99519.34;;;4.76;75.05
15817;BME280;8009;50.070;8.232;2022-11-20T04:10:13;99513.19;;;4.60;75.50
15817;BME280;8009;50.070;8.232;2022-11-20T04:12:42;99507.72;;;4.61;75.34
15817;BME280;8009;50.070;8.232;2022-11-20T04:15:10;99511.41;;;4.45;74.90
15817;BME280;8009;50.070;8.232;2022-11-20T04:17:38;99509.72;;;4.74;74.53
15817;BME280;8009;50.070;8.232;2022-11-20T04:20:08;99503.28;;;4.76;74.72
15817;BME280;8009;50.070;8.232;2022-11-20T04:22:36;99500.81;;;4.73;74.10
15817;BME280;8009;50.070;8.232;2022-11-20T04:25:06;99501.63;;;4.89;75.01
15817;BME280;8009;50.070;8.232;2022-11-20T04:27:37;99500.13;;;4.70;75.43
15817;BME280;8009;50.070;8.232;2022-11-20T04:30:07;99505.44;;;4.55;75.63
15817;BME280;8009;50.070;8.232;2022-11-20T04:32:35;99525.59;;;4.91;75.09
15817;BME280;8009;50.070;8.232;2022-11-20T04:35:05;99524.22;;;4.84;76.02
15817;BME280;8009;50.070;8.232;2022-11-20T04:37:34;99528.09;;;4.94;75.69
15817;BME280;8009;50.070;8.232;2022-11-20T04:40:03;99520.97;;;4.49;76.49
15817;BME280;8009;50.070;8.232;2022-11-20T04:42:31;99528.31;;;4.75;75.77
15817;BME280;8009;50.070;8.232;2022-11-20T04:45:02;99516.50;;;4.79;75.53
15817;BME280;8009;50.070;8.232;2022-11-20T04:47:31;99508.75;;;4.75;76.23
15817;BME280;8009;50.070;8.232;2022-11-20T04:49:59;99513.81;;;4.79;75.14
15817;BME280;8009;50.070;8.232;2022-11-20T04:52:28;99510.31;;;4.93;74.69
15817;BME280;8009;50.070;8.232;2022-11-20T04:54:56;99511.31;;;4.76;75.20
15817;BME280;8009;50.070;8.232;2022-11-20T04:57:25;99509.81;;;4.86;75.08
15817;BME280;8009;50.070;8.232;2022-11-20T04:59:53;99510.00;;;4.83;75.07
15817;BME280;8009;50.070;8.232;2022-11-20T05:02:24;99509.03;;;4.84;75.65
15817;BME280;8009;50.070;8.232;2022-11-20T05:04:53;99505.97;;;4.76;75.59
15817;BME280;8009;50.070;8.232;2022-11-20T05:07:21;99499.91;;;4.58;76.00
15817;BME280;8009;50.070;8.232;2022-11-20T05:09:49;99499.50;;;4.50;76.15
15817;BME280;8009;50.070;8.232;2022-11-20T05:12:18;99501.00;;;4.70;75.65
15817;BME280;8009;50.070;8.232;2022-11-20T05:14:46;99491.06;;;4.72;76.27
15817;BME280;8009;50.070;8.232;2022-11-20T05:17:14;99508.88;;;4.57;77.19
15817;BME280;8009;50.070;8.232;2022-11-20T05:19:45;99498.47;;;4.37;77.14
15817;BME280;8009;50.070;8.232;2022-11-20T05:22:15;99500.94;;;4.86;75.68
15817;BME280;8009;50.070;8.232;2022-11-20T05:24:44;99502.47;;;4.90;75.53
15817;BME280;8009;50.070;8.232;2022-11-20T05:27:12;99507.81;;;4.90;75.54
15817;BME280;8009;50.070;8.232;2022-11-20T05:29:41;99504.41;;;5.02;75.05
15817;BME280;8009;50.070;8.232;2022-11-20T05:32:09;99504.06;;;4.78;75.42
15817;BME280;8009;50.070;8.232;2022-11-20T05:34:37;99495.47;;;4.87;75.44
15817;BME280;8009;50.070;8.232;2022-11-20T05:37:08;99499.63;;;4.93;75.76
15817;BME280;8009;50.070;8.232;2022-11-20T05:39:37;99504.88;;;4.95;75.12
15817;BME280;8009;50.070;8.232;2022-11-20T05:42:05;99501.66;;;5.04;74.69
15817;BME280;8009;50.070;8.232;2022-11-20T05:44:46;99503.94;;;5.10;75.18
15817;BME280;8009;50.070;8.232;2022-11-20T05:47:15;99498.88;;;5.05;75.48
15817;BME280;8009;50.070;8.232;2022-11-20T05:49:43;99495.31;;;4.91;75.84
15817;BME280;8009;50.070;8.232;2022-11-20T05:52:14;99496.13;;;4.77;76.46
15817;BME280;8009;50.070;8.232;2022-11-20T05:54:43;99498.63;;;4.80;76.30
15817;BME280;8009;50.070;8.232;2022-11-20T05:57:11;99507.09;;;4.72;75.86
15817;BME280;8009;50.070;8.232;2022-11-20T05:59:39;99503.69;;;4.84;76.02
15817;BME280;8009;50.070;8.232;2022-11-20T06:02:08;99500.66;;;4.91;75.26
15817;BME280;8009;50.070;8.232;2022-11-20T06:04:36;99494.47;;;5.04;75.60
15817;BME280;8009;50.070;8.232;2022-11-20T06:07:05;99495.88;;;4.96;75.46
15817;BME280;8009;50.070;8.232;2022-11-20T06:09:36;99494.16;;;4.95;76.47
15817;BME280;8009;50.070;8.232;2022-11-20T06:12:05;99497.13;;;4.90;75.94
15817;BME280;8009;50.070;8.232;2022-11-20T06:14:34;99494.63;;;4.87;76.18
15817;BME280;8009;50.070;8.232;2022-11-20T06:17:04;99489.22;;;4.58;76.36
15817;BME280;8009;50.070;8.232;2022-11-20T06:19:33;99483.06;;;4.86;75.91
15817;BME280;8009;50.070;8.232;2022-11-20T06:22:01;99487.31;;;5.05;75.63
15817;BME280;8009;50.070;8.232;2022-11-20T06:24:31;99481.50;;;4.68;76.73
15817;BME280;8009;50.070;8.232;2022-11-20T06:27:02;99485.84;;;4.85;77.11
15817;BME280;8009;50.070;8.232;2022-11-20T06:29:32;99476.97;;;4.24;79.86
15817;BME280;8009;50.070;8.232;2022-11-20T06:32:02;99474.38;;;4.53;78.08
15817;BME280;8009;50.070;8.232;2022-11-20T06:34:33;99478.88;;;4.97;77.18
15817;BME280;8009;50.070;8.232;2022-11-20T06:37:02;99478.53;;;5.17;76.41
15817;BME280;8009;50.070;8.232;2022-11-20T06:39:30;99476.50;;;5.06;77.31
15817;BME280;8009;50.070;8.232;2022-11-20T06:41:58;99482.22;;;4.86;77.02
15817;BME280;8009;50.070;8.232;2022-11-20T06:44:34;99474.69;;;5.07;76.06
15817;BME280;8009;50.070;8.232;2022-11-20T06:47:02;99488.13;;;4.91;77.42
15817;BME280;8009;50.070;8.232;2022-11-20T06:49:31;99491.59;;;4.93;77.34
15817;BME280;8009;50.070;8.232;2022-11-20T06:52:00;99496.75;;;5.10;77.00
15817;BME280;8009;50.070;8.232;2022-11-20T06:54:29;99500.41;;;5.09;76.59
15817;BME280;8009;50.070;8.232;2022-11-20T06:56:58;99491.19;;;4.85;77.28
15817;BME280;8009;50.070;8.232;2022-11-20T06:59:29;99496.13;;;4.77;76.23
15817;BME280;8009;50.070;8.232;2022-11-20T07:01:58;99495.44;;;4.59;77.92
15817;BME280;8009;50.070;8.232;2022-11-20T07:04:27;99500.50;;;4.63;78.37
15817;BME280;8009;50.070;8.232;2022-11-20T07:06:55;99502.75;;;4.85;77.62
15817;BME280;8009;50.070;8.232;2022-11-20T07:09:24;99510.44;;;5.06;77.14
15817;BME280;8009;50.070;8.232;2022-11-20T07:11:52;99507.75;;;4.31;78.61
15817;BME280;8009;50.070;8.232;2022-11-20T07:14:20;99506.13;;;4.59;78.66
15817;BME280;8009;50.070;8.232;2022-11-20T07:16:51;99506.69;;;4.64;78.37
15817;BME280;8009;50.070;8.232;2022-11-20T07:19:20;99501.63;;;4.59;78.02
15817;BME280;8009;50.070;8.232;2022-11-20T07:21:49;99510.72;;;4.41;80.28
15817;BME280;8009;50.070;8.232;2022-11-20T07:24:17;99509.50;;;4.77;79.07
15817;BME280;8009;50.070;8.232;2022-11-20T07:26:46;99511.69;;;4.70;79.48
15817;BME280;8009;50.070;8.232;2022-11-20T07:29:14;99510.22;;;4.50;79.97
15817;BME280;8009;50.070;8.232;2022-11-20T07:31:42;99511.97;;;4.66;79.39
15817;BME280;8009;50.070;8.232;2022-11-20T07:34:14;99502.59;;;4.12;81.32
15817;BME280;8009;50.070;8.232;2022-11-20T07:36:42;99505.66;;;4.97;78.43
15817;BME280;8009;50.070;8.232;2022-11-20T07:39:10;99513.41;;;4.71;79.60
15817;BME280;8009;50.070;8.232;2022-11-20T07:41:39;99509.59;;;5.20;77.60
15817;BME280;8009;50.070;8.232;2022-11-20T07:44:08;99507.47;;;5.10;77.38
15817;BME280;8009;50.070;8.232;2022-11-20T07:46:37;99509.97;;;5.13;76.86
15817;BME280;8009;50.070;8.232;2022-11-20T07:49:05;99512.47;;;5.17;76.93
15817;BME280;8009;50.070;8.232;2022-11-20T07:51:36;99515.28;;;4.85;78.20
15817;BME280;8009;50.070;8.232;2022-11-20T07:54:05;99521.91;;;5.08;78.09
15817;BME280;8009;50.070;8.232;2022-11-20T07:56:33;99528.81;;;5.12;77.02
15817;BME280;8009;50.070;8.232;2022-11-20T07:59:03;99520.47;;;5.17;77.33
15817;BME280;8009;50.070;8.232;2022-11-20T08:01:32;99516.00;;;5.17;76.97
15817;BME280;8009;50.070;8.232;2022-11-20T08:04:01;99532.16;;;5.16;77.24
15817;BME280;8009;50.070;8.232;2022-11-20T08:06:30;99526.44;;;4.61;80.36
15817;BME280;8009;50.070;8.232;2022-11-20T08:09:04;99525.47;;;4.78;78.67
15817;BME280;8009;50.070;8.232;2022-11-20T08:11:34;99542.72;;;4.73;80.11
15817;BME280;8009;50.070;8.232;2022-11-20T08:14:30;99530.53;;;4.83;79.06
15817;BME280;8009;50.070;8.232;2022-11-20T08:16:58;99531.22;;;4.86;78.00
15817;BME280;8009;50.070;8.232;2022-11-20T08:19:27;99539.66;;;4.64;78.63
15817;BME280;8009;50.070;8.232;2022-11-20T08:21:55;99531.31;;;4.85;78.45
15817;BME280;8009;50.070;8.232;2022-11-20T08:24:27;99541.13;;;5.14;77.62
15817;BME280;8009;50.070;8.232;2022-11-20T08:26:59;99549.34;;;5.11;77.86
15817;BME280;8009;50.070;8.232;2022-11-20T08:29:28;99544.66;;;5.15;77.93
15817;BME280;8009;50.070;8.232;2022-11-20T08:31:56;99550.56;;;5.06;78.09
15817;BME280;8009;50.070;8.232;2022-11-20T08:34:25;99554.03;;;4.78;79.23
15817;BME280;8009;50.070;8.232;2022-11-20T08:36:54;99551.88;;;4.99;78.50
15817;BME280;8009;50.070;8.232;2022-11-20T08:39:22;99548.50;;;5.25;77.13
15817;BME280;8009;50.070;8.232;2022-11-20T08:41:53;99544.78;;;5.56;75.67
15817;BME280;8009;50.070;8.232;2022-11-20T08:44:21;99547.47;;;5.56;76.50
15817;BME280;8009;50.070;8.232;2022-11-20T08:46:50;99545.94;;;5.52;77.06
15817;BME280;8009;50.070;8.232;2022-11-20T08:49:18;99541.34;;;5.54;75.85
15817;BME280;8009;50.070;8.232;2022-11-20T08:51:47;99553.50;;;5.74;75.20
15817;BME280;8009;50.070;8.232;2022-11-20T08:54:18;99571.97;;;4.76;78.32
15817;BME280;8009;50.070;8.232;2022-11-20T08:56:47;99577.47;;;5.33;77.51
15817;BME280;8009;50.070;8.232;2022-11-20T08:59:21;99570.81;;;5.83;75.15
15817;BME280;8009;50.070;8.232;2022-11-20T09:01:49;99565.47;;;5.54;76.69
15817;BME280;8009;50.070;8.232;2022-11-20T09:04:18;99564.75;;;5.22;77.57
15817;BME280;8009;50.070;8.232;2022-11-20T09:06:46;99566.88;;;5.31;77.64
15817;BME280;8009;50.070;8.232;2022-11-20T09:09:17;99561.16;;;5.66;76.44
15817;BME280;8009;50.070;8.232;2022-11-20T09:11:46;99571.34;;;5.17;78.66
15817;BME280;8009;50.070;8.232;2022-11-20T09:14:17;99565.00;;;5.76;75.95
15817;BME280;8009;50.070;8.232;2022-11-20T09:16:46;99562.97;;;5.66;77.53
15817;BME280;8009;50.070;8.232;2022-11-20T09:19:15;99559.53;;;5.63;76.87
15817;BME280;8009;50.070;8.232;2022-11-20T09:21:43;99558.91;;;5.16;78.00
15817;BME280;8009;50.070;8.232;2022-11-20T09:24:12;99550.69;;;5.04;78.44
15817;BME280;8009;50.070;8.232;2022-11-20T09:26:42;99553.78;;;5.27;77.56
15817;BME280;8009;50.070;8.232;2022-11-20T09:29:13;99557.63;;;5.66;76.31
15817;BME280;8009;50.070;8.232;2022-11-20T09:31:44;99553.03;;;5.39;76.43
15817;BME280;8009;50.070;8.232;2022-11-20T09:34:14;99557.16;;;5.14;77.24
15817;BME280;8009;50.070;8.232;2022-11-20T09:36:43;99550.06;;;5.44;77.02
15817;BME280;8009;50.070;8.232;2022-11-20T09:39:11;99560.53;;;5.18;79.12
15817;BME280;8009;50.070;8.232;2022-11-20T09:41:58;99553.63;;;5.14;78.86
15817;BME280;8009;50.070;8.232;2022-11-20T09:44:45;99549.28;;;5.84;76.71
15817;BME280;8009;50.070;8.232;2022-11-20T09:47:26;99547.00;;;6.07;75.21
15817;BME280;8009;50.070;8.232;2022-11-20T09:50:17;99549.28;;;5.84;76.04
15817;BME280;8009;50.070;8.232;2022-11-20T09:52:58;99555.31;;;5.88;76.81
15817;BME280;8009;50.070;8.232;2022-11-20T09:55:30;99556.75;;;5.94;76.02
15817;BME280;8009;50.070;8.232;2022-11-20T09:58:06;99548.03;;;6.04;75.50
15817;BME280;8009;50.070;8.232;2022-11-20T10:00:35;99543.06;;;5.98;74.73
15817;BME280;8009;50.070;8.232;2022-11-20T10:03:13;99556.34;;;6.14;74.80
15817;BME280;8009;50.070;8.232;2022-11-20T10:05:47;99571.50;;;6.01;75.75
15817;BME280;8009;50.070;8.232;2022-11-20T10:08:23;99560.28;;;6.23;75.01
15817;BME280;8009;50.070;8.232;2022-11-20T10:11:01;99551.63;;;6.18;74.36
15817;BME280;8009;50.070;8.232;2022-11-20T10:13:40;99544.56;;;6.17;74.69
15817;BME280;8009;50.070;8.232;2022-11-20T10:16:21;99549.38;;;6.12;74.80
15817;BME280;8009;50.070;8.232;2022-11-20T10:19:07;99543.34;;;5.79;75.91
15817;BME280;8009;50.070;8.232;2022-11-20T10:21:48;99534.03;;;6.14;75.17
15817;BME280;8009;50.070;8.232;2022-11-20T10:24:43;99530.41;;;6.15;75.13
15817;BME280;8009;50.070;8.232;2022-11-20T10:27:29;99524.22;;;6.41;74.52
15817;BME280;8009;50.070;8.232;2022-11-20T10:30:02;99513.88;;;6.35;74.11
15817;BME280;8009;50.070;8.232;2022-11-20T10:32:34;99515.94;;;6.17;75.45
15817;BME280;8009;50.070;8.232;2022-11-20T10:35:15;99517.75;;;6.17;75.86
15817;BME280;8009;50.070;8.232;2022-11-20T10:37:48;99515.91;;;6.31;74.97
15817;BME280;8009;50.070;8.232;2022-11-20T10:40:24;99509.34;;;6.23;75.23
15817;BME280;8009;50.070;8.232;2022-11-20T10:42:57;99511.22;;;6.21;75.22
15817;BME280;8009;50.070;8.232;2022-11-20T10:45:39;99506.22;;;6.29;76.05
15817;BME280;8009;50.070;8.232;2022-11-20T10:48:14;99513.50;;;6.00;77.24
15817;BME280;8009;50.070;8.232;2022-11-20T10:51:20;99505.06;;;6.33;75.75
15817;BME280;8009;50.070;8.232;2022-11-20T10:54:10;99496.72;;;6.38;75.21
15817;BME280;8009;50.070;8.232;2022-11-20T10:56:42;99507.19;;;5.72;78.51
15817;BME280;8009;50.070;8.232;2022-11-20T10:59:47;99499.44;;;6.50;76.77
15817;BME280;8009;50.070;8.232;2022-11-20T11:02:23;99501.97;;;6.39;76.12
15817;BME280;8009;50.070;8.232;2022-11-20T11:04:54;99503.03;;;6.37;76.70
15817;BME280;8009;50.070;8.232;2022-11-20T11:07:30;99503.81;;;6.12;76.63
15817;BME280;8009;50.070;8.232;2022-11-20T11:10:12;99496.31;;;6.17;77.06
15817;BME280;8009;50.070;8.232;2022-11-20T11:12:43;99492.72;;;6.57;75.78
15817;BME280;8009;50.070;8.232;2022-11-20T11:15:23;99488.53;;;6.66;74.84
15817;BME280;8009;50.070;8.232;2022-11-20T11:17:56;99488.88;;;6.74;75.66
15817;BME280;8009;50.070;8.232;2022-11-20T11:20:25;99480.34;;;6.55;75.48
15817;BME280;8009;50.070;8.232;2022-11-20T11:22:58;99474.09;;;6.81;75.51
15817;BME280;8009;50.070;8.232;2022-11-20T11:25:31;99479.66;;;6.78;76.36
15817;BME280;8009;50.070;8.232;2022-11-20T11:28:02;99477.63;;;6.82;74.96
15817;BME280;8009;50.070;8.232;2022-11-20T11:30:41;99472.78;;;6.74;74.44
15817;BME280;8009;50.070;8.232;2022-11-20T11:33:12;99475.69;;;6.04;79.12
15817;BME280;8009;50.070;8.232;2022-11-20T11:35:47;99469.03;;;6.77;75.96
15817;BME280;8009;50.070;8.232;2022-11-20T11:38:28;99477.59;;;6.69;75.40
15817;BME280;8009;50.070;8.232;2022-11-20T11:41:04;99457.84;;;6.70;74.83
15817;BME280;8009;50.070;8.232;2022-11-20T11:43:35;99457.44;;;6.89;74.65
15817;BME280;8009;50.070;8.232;2022-11-20T11:46:31;99451.34;;;7.00;75.27
15817;BME280;8009;50.070;8.232;2022-11-20T11:49:09;99454.66;;;7.16;74.58
15817;BME280;8009;50.070;8.232;2022-11-20T11:51:47;99451.91;;;6.52;76.14
15817;BME280;8009;50.070;8.232;2022-11-20T11:54:25;99450.50;;;6.99;74.89
15817;BME280;8009;50.070;8.232;2022-11-20T11:57:00;99441.03;;;7.06;74.35
15817;BME280;8009;50.070;8.232;2022-11-20T11:59:43;99447.47;;;7.17;74.23
15817;BME280;8009;50.070;8.232;2022-11-20T12:02:28;99444.56;;;7.20;75.00
15817;BME280;8009;50.070;8.232;2022-11-20T12:05:03;99447.25;;;7.20;74.23
15817;BME280;8009;50.070;8.232;2022-11-20T12:07:41;99444.88;;;6.77;75.21
15817;BME280;8009;50.070;8.232;2022-11-20T12:10:22;99444.78;;;7.04;74.56
15817;BME280;8009;50.070;8.232;2022-11-20T12:12:55;99432.09;;;7.31;73.17
15817;BME280;8009;50.070;8.232;2022-11-20T12:15:30;99432.53;;;7.13;74.44
15817;BME280;8009;50.070;8.232;2022-11-20T12:17:59;99430.84;;;7.12;74.42
15817;BME280;8009;50.070;8.232;2022-11-20T12:20:31;99434.91;;;7.04;75.13
15817;BME280;8009;50.070;8.232;2022-11-20T12:23:06;99429.63;;;6.90;75.79
15817;BME280;8009;50.070;8.232;2022-11-20T12:25:43;99431.34;;;7.17;74.50
15817;BME280;8009;50.070;8.232;2022-11-20T12:28:38;99426.63;;;6.69;75.98
15817;BME280;8009;50.070;8.232;2022-11-20T12:31:23;99430.84;;;6.99;75.48
15817;BME280;8009;50.070;8.232;2022-11-20T12:34:16;99424.06;;;6.93;75.42
15817;BME280;8009;50.070;8.232;2022-11-20T12:36:53;99417.19;;;7.02;75.05
15817;BME280;8009;50.070;8.232;2022-11-20T12:39:34;99409.91;;;7.04;74.91
15817;BME280;8009;50.070;8.232;2022-11-20T12:45:41;99403.69;;;7.03;76.67
15817;BME280;8009;50.070;8.232;2022-11-20T12:51:24;99398.00;;;6.95;76.41
15817;BME280;8009;50.070;8.232;2022-11-20T12:56:51;99397.75;;;7.24;75.27
15817;BME280;8009;50.070;8.232;2022-11-20T12:59:38;99396.00;;;7.48;74.21
15817;BME280;8009;50.070;8.232;2022-11-20T13:02:23;99402.25;;;7.23;74.79
15817;BME280;8009;50.070;8.232;2022-11-20T13:05:03;99388.78;;;7.49;73.68
15817;BME280;8009;50.070;8.232;2022-11-20T13:07:35;99384.91;;;7.53;73.64
15817;BME280;8009;50.070;8.232;2022-11-20T13:10:16;99380.91;;;7.58;74.02
15817;BME280;8009;50.070;8.232;2022-11-20T13:12:51;99380.44;;;7.28;76.27
15817;BME280;8009;50.070;8.232;2022-11-20T13:15:42;99380.34;;;7.29;75.13
15817;BME280;8009;50.070;8.232;2022-11-20T13:18:11;99372.31;;;7.53;75.29
15817;BME280;8009;50.070;8.232;2022-11-20T13:20:42;99382.72;;;7.58;74.83
15817;BME280;8009;50.070;8.232;2022-11-20T13:23:26;99384.78;;;7.54;73.73
15817;BME280;8009;50.070;8.232;2022-11-20T13:26:16;99380.88;;;7.09;76.01
15817;BME280;8009;50.070;8.232;2022-11-20T13:28:46;99377.34;;;7.21;76.38
15817;BME280;8009;50.070;8.232;2022-11-20T13:31:32;99372.03;;;7.32;74.72
15817;BME280;8009;50.070;8.232;2022-11-20T13:34:05;99375.09;;;7.15;76.84
15817;BME280;8009;50.070;8.232;2022-11-20T13:36:35;99369.69;;;7.41;75.36
15817;BME280;8009;50.070;8.232;2022-11-20T13:39:05;99367.56;;;7.33;75.65
15817;BME280;8009;50.070;8.232;2022-11-20T13:41:37;99368.28;;;7.35;74.97
15817;BME280;8009;50.070;8.232;2022-11-20T13:44:12;99359.97;;;7.14;75.84
15817;BME280;8009;50.070;8.232;2022-11-20T13:46:45;99360.44;;;7.32;75.41
15817;BME280;8009;50.070;8.232;2022-11-20T13:49:18;99352.31;;;7.21;75.41
15817;BME280;8009;50.070;8.232;2022-11-20T13:51:52;99354.91;;;7.22;75.58
15817;BME280;8009;50.070;8.232;2022-11-20T13:54:48;99355.13;;;6.94;76.17
15817;BME280;8009;50.070;8.232;2022-11-20T13:57:43;99357.72;;;7.08;75.78